Terminal Aerodrome Forecast
Issued by NWS Duluth, MN

Home | Current Version | Previous Version | Text Only | Print | Product List | Glossary On
Versions: 1 2 3 4 5 6 7 8 9 10 11 12 13 14 15 16 17 18 19 20 21 22 23 24 25 26 27 28
000
FTUS43 KDLH 210900 AAA
TAFINL
TAF AMD
KINL 210913Z 2109/2206 34014G24KT 5SM -SN SCT010 OVC015
      TEMPO 2109/2113 2SM -SN BR SCT007 OVC020
     FM211600 33017G27KT 6SM -SN BKN015 OVC025
      TEMPO 2118/2122 2SM -SHSN OVC010
     FM220200 32012G21KT P6SM BKN030=

USA.gov is the U.S. government's official web portal to all federal, state and local government web resources and services.